createdAt,value
2023-12-20T00:00:00.173Z,0.7
2023-12-20T00:02:00.569Z,0.55
2023-12-20T00:04:00.169Z,0.55
2023-12-20T00:06:00.168Z,0.77
2023-12-20T00:08:00.254Z,0.77
2023-12-20T00:10:00.297Z,0.77
2023-12-20T00:12:00.121Z,1.5
2023-12-20T00:14:00.156Z,1.5
2023-12-20T00:16:00.255Z,0.8
2023-12-20T00:18:00.216Z,0.8
2023-12-20T00:20:00.349Z,0.8
2023-12-20T00:22:00.164Z,0.73
2023-12-20T00:24:00.090Z,0.73
2023-12-20T00:26:00.105Z,0.4
2023-12-20T00:28:00.244Z,0.4
2023-12-20T00:30:00.306Z,0.4
2023-12-20T00:32:00.106Z,1.07
2023-12-20T00:34:00.316Z,1.07
2023-12-20T00:36:00.099Z,0.57
2023-12-20T00:38:00.164Z,0.57
2023-12-20T00:40:00.398Z,0.57
2023-12-20T00:42:00.208Z,0.93
2023-12-20T00:44:00.146Z,0.93
2023-12-20T00:46:00.233Z,1.63
2023-12-20T00:48:00.150Z,1.63
2023-12-20T00:50:00.285Z,1.63
2023-12-20T00:52:00.271Z,0.65
2023-12-20T00:54:00.150Z,0.65
2023-12-20T00:56:00.136Z,1.63
2023-12-20T00:58:00.144Z,1.63
2023-12-20T01:00:00.200Z,1.63
2023-12-20T01:02:00.382Z,0.4
2023-12-20T01:04:00.262Z,0.4
2023-12-20T01:06:00.330Z,1.63
2023-12-20T01:08:00.104Z,1.63
2023-12-20T01:10:00.337Z,1.63
2023-12-20T01:12:00.096Z,0
2023-12-20T01:14:00.130Z,0
2023-12-20T01:16:00.343Z,1.13
2023-12-20T01:18:00.164Z,1.13
2023-12-20T01:20:00.331Z,1.13
2023-12-20T01:22:00.192Z,0.4
2023-12-20T01:24:00.112Z,0.4
2023-12-20T01:26:00.228Z,0.2
2023-12-20T01:28:00.199Z,0.2
2023-12-20T01:30:00.338Z,0.2
2023-12-20T01:32:00.142Z,0.2
2023-12-20T01:34:00.206Z,0.2
2023-12-20T01:36:00.152Z,0.15
2023-12-20T01:38:00.111Z,0.15
2023-12-20T01:40:00.312Z,0.15
2023-12-20T01:42:00.224Z,0.47
2023-12-20T01:44:00.112Z,0.47
2023-12-20T01:46:00.200Z,0
2023-12-20T01:48:00.218Z,0
2023-12-20T01:50:00.340Z,0
2023-12-20T01:52:00.186Z,0.13
2023-12-20T01:54:00.139Z,0.13
2023-12-20T01:56:00.204Z,0.13
2023-12-20T01:58:00.199Z,0.13
2023-12-20T02:00:00.218Z,0.13
2023-12-20T02:02:00.196Z,0.1
2023-12-20T02:04:00.320Z,0.1
2023-12-20T02:06:00.205Z,0.05
2023-12-20T02:08:00.215Z,0.05
2023-12-20T02:10:00.289Z,0.05
2023-12-20T02:12:00.149Z,0
2023-12-20T02:14:00.214Z,0
2023-12-20T02:16:00.350Z,0.13
2023-12-20T02:18:00.160Z,0.13
2023-12-20T02:20:00.344Z,0.13
2023-12-20T02:22:00.254Z,0
2023-12-20T02:24:00.152Z,0
2023-12-20T02:26:00.175Z,0.35
2023-12-20T02:28:00.256Z,0.35
2023-12-20T02:30:00.243Z,0.35
2023-12-20T02:32:00.141Z,0.2
2023-12-20T02:34:00.239Z,0.2
2023-12-20T02:36:00.148Z,0.67
2023-12-20T02:38:00.204Z,0.67
2023-12-20T02:40:00.434Z,0.67
2023-12-20T02:42:00.173Z,0.5
2023-12-20T02:44:00.114Z,0.5
2023-12-20T02:46:00.252Z,0
2023-12-20T02:48:00.210Z,0
2023-12-20T02:50:00.583Z,0
2023-12-20T02:52:00.192Z,0.37
2023-12-20T02:54:00.232Z,0.37
2023-12-20T02:56:00.086Z,0.13
2023-12-20T02:58:00.238Z,0.13
2023-12-20T03:00:00.256Z,0.13
2023-12-20T03:02:00.297Z,2.33
2023-12-20T03:04:00.233Z,2.33
2023-12-20T03:06:00.132Z,0.1
2023-12-20T03:08:00.152Z,0.1
2023-12-20T03:10:11.960Z,0.1
2023-12-20T03:12:00.080Z,0
2023-12-20T03:14:00.185Z,0
2023-12-20T03:16:00.182Z,1.3
2023-12-20T03:18:00.341Z,1.3
2023-12-20T03:20:00.363Z,1.3
2023-12-20T03:22:00.203Z,1.2
2023-12-20T03:24:00.156Z,1.2
2023-12-20T03:26:00.180Z,0.23
2023-12-20T03:28:00.192Z,0.23
2023-12-20T03:30:00.284Z,0.23
2023-12-20T03:32:00.091Z,0.5
2023-12-20T03:34:00.282Z,0.5
2023-12-20T03:36:00.120Z,0
2023-12-20T03:38:00.200Z,0
2023-12-20T03:40:00.335Z,0
2023-12-20T03:42:00.208Z,0.57
2023-12-20T03:44:00.107Z,0.57
2023-12-20T03:46:00.291Z,0.17
2023-12-20T03:48:00.283Z,0.17
2023-12-20T03:50:00.317Z,0.17
2023-12-20T03:52:00.281Z,0.2
2023-12-20T03:54:00.209Z,0.2
2023-12-20T03:56:00.100Z,0.03
2023-12-20T03:58:00.235Z,0.03
2023-12-20T04:00:00.333Z,0.03
2023-12-20T04:02:00.216Z,1.3
2023-12-20T04:04:00.175Z,1.3
2023-12-20T04:06:00.358Z,0.7
2023-12-20T04:08:00.312Z,0.7
2023-12-20T04:10:00.430Z,0.7
2023-12-20T04:12:00.098Z,0.1
2023-12-20T04:14:00.151Z,0.1
2023-12-20T04:16:00.182Z,0
2023-12-20T04:18:00.183Z,0
2023-12-20T04:20:00.307Z,0
2023-12-20T04:22:00.205Z,0.1
2023-12-20T04:24:00.094Z,0.1
2023-12-20T04:26:00.145Z,0
2023-12-20T04:28:00.184Z,0
2023-12-20T04:30:00.337Z,0
2023-12-20T04:32:00.107Z,0.57
2023-12-20T04:34:00.182Z,0.57
2023-12-20T04:36:00.119Z,0
2023-12-20T04:38:00.175Z,0
2023-12-20T04:40:00.275Z,0
2023-12-20T04:42:00.112Z,0.65
2023-12-20T04:44:01.186Z,0.65
2023-12-20T04:46:00.220Z,0.47
2023-12-20T04:48:00.143Z,0.47
2023-12-20T04:50:00.742Z,0.47
2023-12-20T04:52:00.190Z,1.3
2023-12-20T04:54:00.148Z,1.3
2023-12-20T04:56:00.117Z,0.53
2023-12-20T04:58:00.232Z,0.53
2023-12-20T05:00:00.273Z,0.53
2023-12-20T05:02:00.314Z,0.3
2023-12-20T05:04:00.197Z,0.3
2023-12-20T05:06:00.163Z,0.87
2023-12-20T05:08:00.212Z,0.87
2023-12-20T05:10:00.442Z,0.87
2023-12-20T05:12:00.085Z,0.07
2023-12-20T05:14:00.169Z,0.07
2023-12-20T05:16:00.176Z,0.2
2023-12-20T05:18:00.207Z,0.2
2023-12-20T05:20:00.461Z,0.2
2023-12-20T05:22:00.260Z,0.77
2023-12-20T05:24:00.137Z,0.77
2023-12-20T05:26:00.159Z,0.47
2023-12-20T05:28:00.164Z,0.47
2023-12-20T05:30:00.466Z,0.47
2023-12-20T05:32:00.209Z,0.1
2023-12-20T05:34:00.350Z,0.1
2023-12-20T05:36:00.190Z,0.45
2023-12-20T05:38:00.261Z,0.45
2023-12-20T05:40:00.432Z,0.45
2023-12-20T05:42:00.179Z,0.7
2023-12-20T05:44:00.110Z,0.7
2023-12-20T05:46:00.153Z,0.4
2023-12-20T05:48:00.314Z,0.4
2023-12-20T05:50:00.258Z,0.4
2023-12-20T05:52:00.146Z,0.47
2023-12-20T05:54:00.253Z,0.47
2023-12-20T05:56:00.109Z,5.5
2023-12-20T05:58:02.061Z,5.5
2023-12-20T06:00:00.261Z,5.5
2023-12-20T06:02:00.200Z,6.1
2023-12-20T06:04:00.211Z,6.1
2023-12-20T06:06:06.998Z,7.3
2023-12-20T06:08:00.173Z,7.3
2023-12-20T06:10:00.371Z,7.3
2023-12-20T06:12:00.094Z,7.97
2023-12-20T06:14:00.221Z,7.97
2023-12-20T06:16:00.157Z,8.05
2023-12-20T06:18:00.178Z,8.05
2023-12-20T06:20:00.682Z,8.05
2023-12-20T06:22:00.149Z,6.9
2023-12-20T06:24:00.186Z,6.9
2023-12-20T06:26:00.234Z,7.35
2023-12-20T06:28:00.109Z,7.35
2023-12-20T06:30:00.692Z,7.35
2023-12-20T06:32:00.157Z,7.1
2023-12-20T06:34:00.190Z,7.1
2023-12-20T06:36:00.129Z,7.35
2023-12-20T06:38:00.137Z,7.35
2023-12-20T06:40:00.350Z,7.35
2023-12-20T06:42:00.133Z,7.57
2023-12-20T06:44:00.134Z,7.57
2023-12-20T06:46:00.277Z,8.5
2023-12-20T06:48:00.177Z,8.5
2023-12-20T06:50:01.333Z,8.5
2023-12-20T06:52:00.146Z,7.53
2023-12-20T06:54:00.113Z,7.53
2023-12-20T06:56:00.217Z,7.4
2023-12-20T06:58:00.199Z,7.4
2023-12-20T07:00:00.310Z,7.4
2023-12-20T07:02:00.635Z,6.7
2023-12-20T07:04:00.218Z,6.7
2023-12-20T07:06:00.221Z,7.07
2023-12-20T07:08:00.250Z,7.07
2023-12-20T07:10:00.446Z,7.07
2023-12-20T07:12:00.137Z,7.13
2023-12-20T07:14:00.112Z,7.13
2023-12-20T07:16:00.161Z,7.1
2023-12-20T07:18:00.243Z,7.1
2023-12-20T07:20:00.293Z,7.1
2023-12-20T07:22:00.189Z,6.9
2023-12-20T07:24:00.135Z,6.9
2023-12-20T07:26:00.196Z,6.4
2023-12-20T07:28:00.168Z,6.4
2023-12-20T07:30:00.496Z,6.4
2023-12-20T07:32:00.135Z,6.67
2023-12-20T07:34:00.315Z,6.67
2023-12-20T07:36:00.360Z,6.05
2023-12-20T07:38:00.177Z,6.05
2023-12-20T07:40:00.493Z,6.05
2023-12-20T07:42:00.204Z,7.25
2023-12-20T07:44:00.120Z,7.25
2023-12-20T07:46:00.156Z,6.65
2023-12-20T07:48:00.143Z,6.65
2023-12-20T07:50:00.602Z,6.65
2023-12-20T07:52:00.186Z,6.13
2023-12-20T07:54:00.189Z,6.13
2023-12-20T07:56:00.166Z,5.6
2023-12-20T07:58:00.305Z,5.6
2023-12-20T08:00:00.524Z,5.6
2023-12-20T08:02:00.976Z,5.57
2023-12-20T08:04:00.260Z,5.57
2023-12-20T08:06:00.258Z,5.85
2023-12-20T08:08:00.117Z,5.85
2023-12-20T08:10:00.364Z,5.85
2023-12-20T08:12:00.128Z,4.3
2023-12-20T08:14:00.223Z,4.3
2023-12-20T08:16:00.973Z,5.5
2023-12-20T08:18:00.222Z,5.5
2023-12-20T08:20:00.432Z,5.5
2023-12-20T08:22:00.327Z,5.88
2023-12-20T08:24:00.383Z,5.88
2023-12-20T08:26:00.136Z,4.88
2023-12-20T08:28:00.282Z,4.88
2023-12-20T08:30:00.380Z,4.88
2023-12-20T08:32:00.824Z,6.35
2023-12-20T08:34:00.303Z,6.35
2023-12-20T08:36:00.235Z,6.32
2023-12-20T08:38:00.263Z,6.32
2023-12-20T08:40:00.304Z,6.32
2023-12-20T08:42:00.137Z,6.1
2023-12-20T08:44:00.297Z,6.1
2023-12-20T08:46:00.296Z,5.25
2023-12-20T08:48:02.464Z,5.25
2023-12-20T08:50:00.712Z,5.25
2023-12-20T08:52:00.237Z,4.6
2023-12-20T08:54:00.128Z,4.6
2023-12-20T08:56:00.143Z,6.1
2023-12-20T08:58:00.180Z,6.1
2023-12-20T09:00:00.378Z,6.1
2023-12-20T09:02:00.200Z,5.18
2023-12-20T09:04:00.236Z,5.18
2023-12-20T09:06:00.182Z,5.32
2023-12-20T09:08:00.282Z,5.32
2023-12-20T09:10:00.435Z,5.32
2023-12-20T09:12:00.110Z,5.6
2023-12-20T09:14:00.630Z,5.6
2023-12-20T09:16:00.164Z,5.28
2023-12-20T09:18:00.292Z,5.28
2023-12-20T09:20:00.545Z,5.28
2023-12-20T09:22:01.021Z,4.53
2023-12-20T09:24:00.137Z,4.53
2023-12-20T09:26:00.221Z,5.17
2023-12-20T09:28:00.325Z,5.17
2023-12-20T09:30:00.342Z,5.17
2023-12-20T09:32:00.172Z,5.53
2023-12-20T09:34:00.405Z,5.53
2023-12-20T09:36:00.250Z,6.22
2023-12-20T09:38:00.161Z,6.22
2023-12-20T09:40:00.241Z,6.22
2023-12-20T09:42:00.249Z,6.13
2023-12-20T09:44:00.120Z,6.13
2023-12-20T09:46:00.227Z,5.57
2023-12-20T09:48:00.218Z,5.57
2023-12-20T09:50:00.415Z,5.57
2023-12-20T09:52:00.157Z,4.65
2023-12-20T09:54:00.243Z,4.65
2023-12-20T09:56:00.097Z,4.6
2023-12-20T09:58:00.265Z,4.6
2023-12-20T10:00:00.326Z,4.6
2023-12-20T10:02:00.270Z,4.95
2023-12-20T10:04:00.176Z,4.95
2023-12-20T10:06:00.333Z,4.45
2023-12-20T10:08:00.486Z,4.45
2023-12-20T10:10:00.400Z,4.45
2023-12-20T10:12:00.171Z,4.3
2023-12-20T10:14:00.110Z,4.3
2023-12-20T10:16:00.141Z,4.93
2023-12-20T10:18:02.128Z,4.93
2023-12-20T10:20:00.447Z,4.93
2023-12-20T10:22:00.288Z,4.8
2023-12-20T10:24:00.125Z,4.8
2023-12-20T10:26:00.111Z,4.27
2023-12-20T10:28:00.162Z,4.27
2023-12-20T10:30:00.256Z,4.27
2023-12-20T10:32:00.400Z,4.4
2023-12-20T10:34:00.247Z,4.4
2023-12-20T10:36:00.108Z,5.37
2023-12-20T10:38:00.118Z,5.37
2023-12-20T10:40:00.235Z,5.37
2023-12-20T10:42:00.091Z,4.2
2023-12-20T10:44:00.139Z,4.2
2023-12-20T10:46:01.240Z,6.13
2023-12-20T10:48:00.136Z,6.13
2023-12-20T10:50:00.443Z,6.13
2023-12-20T10:54:00.414Z,4.65
2023-12-20T10:56:00.170Z,5.1
2023-12-20T10:58:00.292Z,5.1
2023-12-20T11:00:00.331Z,5.1
2023-12-20T11:02:00.210Z,5.1
2023-12-20T11:04:00.268Z,5.1
2023-12-20T11:06:00.353Z,4.93
2023-12-20T11:08:00.113Z,4.93
2023-12-20T11:10:00.503Z,4.93
2023-12-20T11:12:00.170Z,5.82
2023-12-20T11:14:00.153Z,5.82
2023-12-20T11:16:00.208Z,5.78
2023-12-20T11:18:00.272Z,5.78
2023-12-20T11:20:00.438Z,5.78
2023-12-20T11:22:00.266Z,4.53
2023-12-20T11:24:00.166Z,4.53
2023-12-20T11:26:00.174Z,5.03
2023-12-20T11:28:00.142Z,5.03
2023-12-20T11:30:00.294Z,5.03
2023-12-20T11:32:00.150Z,5.68
2023-12-20T11:34:00.239Z,5.68
2023-12-20T11:36:00.154Z,5.9
2023-12-20T11:38:00.166Z,5.9
2023-12-20T11:40:00.349Z,5.9
2023-12-20T11:42:00.174Z,5.18
2023-12-20T11:44:00.145Z,5.18
2023-12-20T11:46:00.218Z,3.97
2023-12-20T11:48:00.206Z,3.97
2023-12-20T11:50:00.439Z,3.97
2023-12-20T11:52:00.189Z,4.88
2023-12-20T11:54:00.126Z,4.88
2023-12-20T11:56:00.119Z,4.3
2023-12-20T11:58:00.132Z,4.3
2023-12-20T12:00:00.355Z,4.3
2023-12-20T12:02:00.190Z,4.15
2023-12-20T12:04:00.229Z,4.15
2023-12-20T12:06:00.304Z,4.93
2023-12-20T12:08:00.099Z,4.93
2023-12-20T12:10:00.257Z,4.93
2023-12-20T12:12:00.164Z,3.97
2023-12-20T12:14:00.121Z,3.97
2023-12-20T12:16:00.115Z,5.13
2023-12-20T12:18:00.246Z,5.13
2023-12-20T12:20:00.268Z,5.13
2023-12-20T12:22:00.166Z,5.1
2023-12-20T12:24:00.095Z,5.1
2023-12-20T12:26:00.148Z,5.65
2023-12-20T12:28:00.145Z,5.65
2023-12-20T12:30:00.344Z,5.65
2023-12-20T12:32:00.224Z,8.13
2023-12-20T12:34:00.289Z,8.13
2023-12-20T12:36:00.141Z,6.7
2023-12-20T12:38:00.139Z,6.7
2023-12-20T12:40:00.362Z,6.7
2023-12-20T12:42:00.189Z,7.68
2023-12-20T12:44:07.961Z,7.68
2023-12-20T12:46:00.190Z,6.8
2023-12-20T12:48:00.174Z,6.8
2023-12-20T12:50:00.420Z,6.8
2023-12-20T12:52:00.189Z,6.2
2023-12-20T12:54:00.118Z,6.2
2023-12-20T12:56:00.105Z,5.5
2023-12-20T12:58:00.192Z,5.5
2023-12-20T13:00:00.264Z,5.5
2023-12-20T13:02:00.225Z,6.2
2023-12-20T13:04:00.175Z,6.2
2023-12-20T13:06:00.245Z,7.23
2023-12-20T13:08:00.207Z,7.23
2023-12-20T13:10:00.353Z,7.23
2023-12-20T13:12:00.147Z,7.53
2023-12-20T13:14:00.122Z,7.53
2023-12-20T13:16:00.133Z,5.97
2023-12-20T13:18:00.243Z,5.97
2023-12-20T13:20:00.421Z,5.97
2023-12-20T13:22:00.209Z,5.53
2023-12-20T13:24:00.122Z,5.53
2023-12-20T13:26:00.113Z,5.45
2023-12-20T13:28:00.164Z,5.45
2023-12-20T13:30:00.294Z,5.45
2023-12-20T13:32:00.218Z,6.4
2023-12-20T13:34:00.234Z,6.4
2023-12-20T13:36:00.145Z,6.2
2023-12-20T13:38:00.108Z,6.2
2023-12-20T13:40:00.304Z,6.2
2023-12-20T13:42:01.284Z,5.5
2023-12-20T13:44:00.118Z,5.5
2023-12-20T13:46:00.171Z,5.15
2023-12-20T13:48:00.331Z,5.15
2023-12-20T13:50:00.382Z,5.15
2023-12-20T13:52:00.191Z,6.3
2023-12-20T13:54:00.243Z,6.3
2023-12-20T13:56:00.107Z,5.53
2023-12-20T13:58:00.518Z,5.53
2023-12-20T14:00:00.345Z,5.53
2023-12-20T14:02:00.210Z,6.1
2023-12-20T14:04:00.151Z,6.1
2023-12-20T14:06:00.173Z,5.93
2023-12-20T14:08:00.298Z,5.93
2023-12-20T14:10:00.457Z,5.93
2023-12-20T14:12:00.153Z,5.75
2023-12-20T14:14:00.182Z,5.75
2023-12-20T14:16:00.168Z,6.57
2023-12-20T14:18:00.248Z,6.57
2023-12-20T14:20:00.408Z,6.57
2023-12-20T14:22:00.130Z,5.78
2023-12-20T14:24:00.146Z,5.78
2023-12-20T14:26:00.473Z,5.35
2023-12-20T14:28:00.144Z,5.35
2023-12-20T14:30:00.389Z,5.35
2023-12-20T14:32:00.102Z,5.7
2023-12-20T14:34:00.230Z,5.7
2023-12-20T14:36:00.159Z,6.5
2023-12-20T14:38:00.158Z,6.5
2023-12-20T14:40:00.220Z,6.5
2023-12-20T14:42:00.166Z,7.57
2023-12-20T14:44:00.124Z,7.57
2023-12-20T14:46:00.204Z,8.45
2023-12-20T14:48:00.151Z,8.45
2023-12-20T14:50:00.348Z,8.45
2023-12-20T14:52:00.275Z,8.02
2023-12-20T14:54:00.146Z,8.02
2023-12-20T14:56:00.154Z,10.15
2023-12-20T14:58:00.308Z,10.15
2023-12-20T15:00:00.370Z,10.15
2023-12-20T15:02:00.378Z,8.4
2023-12-20T15:04:00.167Z,8.4
2023-12-20T15:06:00.302Z,8.1
2023-12-20T15:08:00.098Z,8.1
2023-12-20T15:10:00.320Z,8.1
2023-12-20T15:12:00.101Z,6.22
2023-12-20T15:14:00.116Z,6.22
2023-12-20T15:16:00.247Z,7.35
2023-12-20T15:18:00.161Z,7.35
2023-12-20T15:20:00.331Z,7.35
2023-12-20T15:22:00.183Z,6.8
2023-12-20T15:24:00.200Z,6.8
2023-12-20T15:26:00.216Z,8.75
2023-12-20T15:28:00.143Z,8.75
2023-12-20T15:30:00.336Z,8.75
2023-12-20T15:32:00.197Z,8.6
2023-12-20T15:34:00.243Z,8.6
2023-12-20T15:36:00.145Z,6.9
2023-12-20T15:38:00.320Z,6.9
2023-12-20T15:40:01.334Z,6.9
2023-12-20T15:42:00.178Z,7.88
2023-12-20T15:44:00.129Z,7.88
2023-12-20T15:46:00.917Z,7.07
2023-12-20T15:48:00.123Z,7.07
2023-12-20T15:50:00.584Z,7.07
2023-12-20T15:52:00.853Z,7.17
2023-12-20T15:54:00.154Z,7.17
2023-12-20T15:56:00.419Z,7.17
2023-12-20T15:58:00.367Z,7.17
2023-12-20T16:00:00.220Z,7.17
2023-12-20T16:02:00.311Z,8.43
2023-12-20T16:04:00.641Z,8.43
2023-12-20T16:06:00.178Z,6.97
2023-12-20T16:08:00.219Z,6.97
2023-12-20T16:10:00.304Z,6.97
2023-12-20T16:12:00.187Z,7.72
2023-12-20T16:14:00.184Z,7.72
2023-12-20T16:16:00.716Z,7.78
2023-12-20T16:18:00.097Z,7.78
2023-12-20T16:20:00.436Z,7.78
2023-12-20T16:22:01.108Z,7.9
2023-12-20T16:24:00.177Z,7.9
2023-12-20T16:26:00.128Z,7.2
2023-12-20T16:28:00.136Z,7.2
2023-12-20T16:30:00.313Z,7.2
2023-12-20T16:32:00.308Z,7.93
2023-12-20T16:34:00.989Z,7.93
2023-12-20T16:36:00.089Z,7.6
2023-12-20T16:38:00.130Z,7.6
2023-12-20T16:40:00.307Z,7.6
2023-12-20T16:42:00.117Z,8.63
2023-12-20T16:44:00.118Z,8.63
2023-12-20T16:46:00.888Z,6.3
2023-12-20T16:48:00.157Z,6.3
2023-12-20T16:50:00.390Z,6.3
2023-12-20T16:52:00.841Z,6.3
2023-12-20T16:54:00.156Z,6.3
2023-12-20T16:56:00.128Z,7.2
2023-12-20T16:58:00.948Z,7.2
2023-12-20T17:00:00.228Z,7.2
2023-12-20T17:02:00.165Z,7.83
2023-12-20T17:04:00.137Z,7.83
2023-12-20T17:06:00.145Z,6.57
2023-12-20T17:08:00.114Z,6.57
2023-12-20T17:10:00.328Z,6.57
2023-12-20T17:12:00.120Z,6.57
2023-12-20T17:14:00.174Z,6.57
2023-12-20T17:16:00.137Z,6.8
2023-12-20T17:18:00.225Z,6.8
2023-12-20T17:20:00.404Z,6.8
2023-12-20T17:22:00.123Z,8.23
2023-12-20T17:24:00.119Z,8.23
2023-12-20T17:26:00.198Z,7.7
2023-12-20T17:28:00.151Z,7.7
2023-12-20T17:30:00.254Z,7.7
2023-12-20T17:32:00.249Z,7.93
2023-12-20T17:34:00.184Z,7.93
2023-12-20T17:36:00.111Z,7.5
2023-12-20T17:38:00.250Z,7.5
2023-12-20T17:40:00.315Z,7.5
2023-12-20T17:42:00.092Z,7.83
2023-12-20T17:44:00.151Z,7.83
2023-12-20T17:46:00.196Z,7.9
2023-12-20T17:48:00.139Z,7.9
2023-12-20T17:50:00.515Z,7.9
2023-12-20T17:52:00.196Z,8.97
2023-12-20T17:54:00.135Z,8.97
2023-12-20T17:56:00.157Z,9.23
2023-12-20T17:58:00.177Z,9.23
2023-12-20T18:00:00.302Z,9.23
2023-12-20T18:02:00.269Z,9.93
2023-12-20T18:04:00.290Z,9.93
2023-12-20T18:06:00.195Z,9.87
2023-12-20T18:08:00.146Z,9.87
2023-12-20T18:10:00.328Z,9.87
2023-12-20T18:12:00.221Z,9.3
2023-12-20T18:14:00.133Z,9.3
2023-12-20T18:16:00.154Z,8.77
2023-12-20T18:18:00.144Z,8.77
2023-12-20T18:20:00.657Z,8.77
2023-12-20T18:22:00.158Z,9.82
2023-12-20T18:24:05.743Z,9.82
2023-12-20T18:26:00.201Z,9.13
2023-12-20T18:28:00.140Z,9.13
2023-12-20T18:30:08.781Z,9.13
2023-12-20T18:32:00.145Z,9.53
2023-12-20T18:34:00.305Z,9.53
2023-12-20T18:36:00.124Z,9.27
2023-12-20T18:38:00.141Z,9.27
2023-12-20T18:40:00.339Z,9.27
2023-12-20T18:42:00.124Z,8.37
2023-12-20T18:44:00.125Z,8.37
2023-12-20T18:46:00.699Z,8.6
2023-12-20T18:48:00.336Z,8.6
2023-12-20T18:50:00.472Z,8.6
2023-12-20T18:52:00.151Z,7.8
2023-12-20T18:54:00.114Z,7.8
2023-12-20T18:56:00.109Z,9.02
2023-12-20T18:58:00.136Z,9.02
2023-12-20T19:00:02.409Z,9.02
2023-12-20T19:02:00.250Z,8.3
2023-12-20T19:04:00.182Z,8.3
2023-12-20T19:06:00.328Z,8.57
2023-12-20T19:08:00.137Z,8.57
2023-12-20T19:10:00.429Z,8.57
2023-12-20T19:12:00.158Z,8.73
2023-12-20T19:14:00.145Z,8.73
2023-12-20T19:16:00.229Z,8.5
2023-12-20T19:18:00.195Z,8.5
2023-12-20T19:20:00.487Z,8.5
2023-12-20T19:22:00.125Z,8.75
2023-12-20T19:24:00.119Z,8.75
2023-12-20T19:26:00.210Z,9.7
2023-12-20T19:28:00.194Z,9.7
2023-12-20T19:30:00.242Z,9.7
2023-12-20T19:32:00.199Z,9.13
2023-12-20T19:34:00.361Z,9.13
2023-12-20T19:36:00.085Z,9.9
2023-12-20T19:38:00.162Z,9.9
2023-12-20T19:40:00.380Z,9.9
2023-12-20T19:42:00.197Z,12.18
2023-12-20T19:44:00.111Z,12.18
2023-12-20T19:46:00.143Z,9.8
2023-12-20T19:48:00.192Z,9.8
2023-12-20T19:50:00.493Z,9.8
2023-12-20T19:52:00.176Z,8.65
2023-12-20T19:54:00.145Z,8.65
2023-12-20T19:56:00.237Z,9.05
2023-12-20T19:58:00.129Z,9.05
2023-12-20T20:00:00.322Z,9.05
2023-12-20T20:02:00.241Z,9.5
2023-12-20T20:04:00.238Z,9.5
2023-12-20T20:06:00.499Z,10.18
2023-12-20T20:08:00.140Z,10.18
2023-12-20T20:10:00.367Z,10.18
2023-12-20T20:12:00.095Z,9.98
2023-12-20T20:14:00.163Z,9.98
2023-12-20T20:16:00.202Z,10.1
2023-12-20T20:18:00.189Z,10.1
2023-12-20T20:20:00.376Z,10.1
2023-12-20T20:22:00.217Z,11.02
2023-12-20T20:24:00.664Z,11.02
2023-12-20T20:26:00.157Z,6.8
2023-12-20T20:28:00.169Z,6.8
2023-12-20T20:30:00.236Z,6.8
2023-12-20T20:32:00.229Z,5.1
2023-12-20T20:34:00.240Z,5.1
2023-12-20T20:36:00.165Z,4.57
2023-12-20T20:38:00.184Z,4.57
2023-12-20T20:40:00.257Z,4.57
2023-12-20T20:42:00.154Z,4.38
2023-12-20T20:44:00.146Z,4.38
2023-12-20T20:46:00.250Z,3.77
2023-12-20T20:48:08.134Z,3.77
2023-12-20T20:50:00.574Z,3.77
2023-12-20T20:52:00.239Z,4.4
2023-12-20T20:54:08.408Z,4.4
2023-12-20T20:56:00.126Z,4.57
2023-12-20T20:58:00.158Z,4.57
2023-12-20T21:00:00.180Z,4.57
2023-12-20T21:02:00.178Z,3.72
2023-12-20T21:04:00.291Z,3.72
2023-12-20T21:06:00.132Z,2.95
2023-12-20T21:08:00.137Z,2.95
2023-12-20T21:10:00.404Z,2.95
2023-12-20T21:12:00.097Z,3.92
2023-12-20T21:14:00.123Z,3.92
2023-12-20T21:16:00.336Z,4.2
2023-12-20T21:18:00.261Z,4.2
2023-12-20T21:20:00.373Z,4.2
2023-12-20T21:22:00.218Z,3.05
2023-12-20T21:24:00.119Z,3.05
2023-12-20T21:26:00.159Z,3.15
2023-12-20T21:28:00.179Z,3.15
2023-12-20T21:30:00.260Z,3.15
2023-12-20T21:32:00.189Z,3.25
2023-12-20T21:34:00.327Z,3.25
2023-12-20T21:36:00.166Z,4.83
2023-12-20T21:38:00.137Z,4.83
2023-12-20T21:40:00.391Z,4.83
2023-12-20T21:42:00.157Z,4.28
2023-12-20T21:44:00.091Z,4.28
2023-12-20T21:46:02.359Z,4.07
2023-12-20T21:48:00.165Z,4.07
2023-12-20T21:50:00.422Z,4.07
2023-12-20T21:52:00.177Z,2.63
2023-12-20T21:54:00.149Z,2.63
2023-12-20T21:56:00.142Z,2.78
2023-12-20T21:58:00.165Z,2.78
2023-12-20T22:00:00.310Z,2.78
2023-12-20T22:02:00.287Z,2.65
2023-12-20T22:04:00.349Z,2.65
2023-12-20T22:06:00.202Z,3.2
2023-12-20T22:08:00.135Z,3.2
2023-12-20T22:10:00.324Z,3.2
2023-12-20T22:12:00.113Z,2.33
2023-12-20T22:14:00.176Z,2.33
2023-12-20T22:16:00.161Z,1.8
2023-12-20T22:18:00.342Z,1.8
2023-12-20T22:20:00.414Z,1.8
2023-12-20T22:22:00.286Z,1.45
2023-12-20T22:24:00.201Z,1.45
2023-12-20T22:26:00.612Z,0.2
2023-12-20T22:28:00.266Z,0.2
2023-12-20T22:30:00.265Z,0.2
2023-12-20T22:32:00.108Z,0.17
2023-12-20T22:34:00.293Z,0.17
2023-12-20T22:36:00.116Z,2.2
2023-12-20T22:38:00.115Z,2.2
2023-12-20T22:40:00.325Z,2.2
2023-12-20T22:42:00.136Z,0.1
2023-12-20T22:44:00.148Z,0.1
2023-12-20T22:46:00.150Z,0.45
2023-12-20T22:48:00.125Z,0.45
2023-12-20T22:50:00.522Z,0.45
2023-12-20T22:52:00.186Z,0.08
2023-12-20T22:54:00.152Z,0.08
2023-12-20T22:56:00.157Z,0.8
2023-12-20T22:58:00.162Z,0.8
2023-12-20T23:00:00.328Z,0.8
2023-12-20T23:02:00.214Z,0.63
2023-12-20T23:04:00.221Z,0.63
2023-12-20T23:06:00.229Z,0.2
2023-12-20T23:08:00.140Z,0.2
2023-12-20T23:10:00.338Z,0.2
2023-12-20T23:12:00.147Z,0.43
2023-12-20T23:14:07.289Z,0.43
2023-12-20T23:16:00.146Z,0.22
2023-12-20T23:18:00.185Z,0.22
2023-12-20T23:20:00.291Z,0.22
2023-12-20T23:22:00.119Z,0.6
2023-12-20T23:24:00.096Z,0.6
2023-12-20T23:26:00.144Z,0.1
2023-12-20T23:28:00.273Z,0.1
2023-12-20T23:30:00.320Z,0.1
2023-12-20T23:32:00.142Z,0.3
2023-12-20T23:34:00.369Z,0.3
2023-12-20T23:36:00.140Z,0
2023-12-20T23:38:00.166Z,0
2023-12-20T23:40:00.292Z,0
2023-12-20T23:42:00.176Z,0.1
2023-12-20T23:44:00.133Z,0.1
2023-12-20T23:46:00.120Z,0.63
2023-12-20T23:48:00.229Z,0.63
2023-12-20T23:50:00.515Z,0.63
2023-12-20T23:52:00.148Z,0.57
2023-12-20T23:54:00.152Z,0.57
2023-12-20T23:56:00.165Z,0.4
2023-12-20T23:58:00.175Z,0.4
